createdAt,value
2023-05-01T00:01:57.360Z,63.40
2023-05-01T00:04:26.757Z,63.55
2023-05-01T00:06:55.565Z,63.18
2023-05-01T00:09:24.269Z,64.29
2023-05-01T00:11:52.926Z,64.42
2023-05-01T00:14:21.762Z,64.08
2023-05-01T00:16:50.629Z,64.67
2023-05-01T00:19:19.299Z,64.35
2023-05-01T00:21:52.716Z,64.62
2023-05-01T00:24:21.371Z,63.77
2023-05-01T00:26:50.361Z,63.98
2023-05-01T00:29:19.983Z,65.58
2023-05-01T00:31:48.688Z,66.68
2023-05-01T00:34:17.644Z,67.78
2023-05-01T00:36:48.039Z,67.02
2023-05-01T00:39:18.128Z,68.26
2023-05-01T00:41:46.782Z,68.02
2023-05-01T00:44:15.665Z,67.94
2023-05-01T00:46:44.796Z,67.55
2023-05-01T00:49:13.981Z,68.41
2023-05-01T00:51:43.372Z,66.91
2023-05-01T00:54:11.846Z,66.92
2023-05-01T00:56:40.434Z,69.20
2023-05-01T00:59:09.438Z,70.21
2023-05-01T01:01:38.375Z,70.20
2023-05-01T01:04:07.146Z,70.45
2023-05-01T01:07:09.529Z,70.42
2023-05-01T01:09:41.132Z,71.08
2023-05-01T01:12:42.681Z,70.79
2023-05-01T01:15:19.253Z,70.94
2023-05-01T01:17:59.868Z,70.91
2023-05-01T01:20:36.586Z,69.87
2023-05-01T01:23:04.988Z,70.09
2023-05-01T01:26:07.628Z,70.09
2023-05-01T01:28:42.123Z,69.98
2023-05-01T01:31:14.720Z,69.32
2023-05-01T01:34:02.223Z,70.50
2023-05-01T01:36:51.755Z,70.92
2023-05-01T01:39:50.132Z,71.33
2023-05-01T01:42:51.691Z,70.86
2023-05-01T01:45:24.324Z,70.77
2023-05-01T01:47:55.048Z,70.85
2023-05-01T01:50:27.590Z,70.70
2023-05-01T01:53:04.053Z,70.58
2023-05-01T01:55:36.624Z,71.00
2023-05-01T01:58:07.358Z,70.56
2023-05-01T02:00:37.006Z,70.28
2023-05-01T02:03:06.850Z,69.63
2023-05-01T02:05:36.588Z,68.83
2023-05-01T02:08:06.097Z,68.39
2023-05-01T02:10:36.400Z,67.88
2023-05-01T02:13:06.237Z,67.81
2023-05-01T02:15:35.549Z,67.69
2023-05-01T02:18:06.868Z,67.91
2023-05-01T02:20:38.145Z,67.93
2023-05-01T02:23:08.236Z,67.26
2023-05-01T02:25:39.716Z,67.09
2023-05-01T02:28:13.237Z,66.87
2023-05-01T02:30:42.704Z,66.88
2023-05-01T02:33:11.688Z,66.64
2023-05-01T02:35:44.809Z,66.00
2023-05-01T02:38:17.275Z,65.15
2023-05-01T02:40:57.551Z,64.63
2023-05-01T02:43:28.909Z,63.88
2023-05-01T02:45:59.384Z,63.68
2023-05-01T02:48:29.390Z,63.28
2023-05-01T02:50:59.301Z,62.94
2023-05-01T02:53:29.860Z,62.58
2023-05-01T02:56:05.201Z,62.28
2023-05-01T02:58:35.130Z,61.86
2023-05-01T03:01:03.724Z,61.62
2023-05-01T03:03:32.809Z,61.44
2023-05-01T03:06:01.943Z,61.08
2023-05-01T03:08:32.315Z,60.61
2023-05-01T03:11:05.833Z,60.53
2023-05-01T03:13:35.550Z,60.54
2023-05-01T03:16:04.931Z,60.54
2023-05-01T03:18:33.623Z,60.31
2023-05-01T03:21:02.710Z,60.02
2023-05-01T03:23:31.998Z,59.83
2023-05-01T03:26:00.805Z,59.83
2023-05-01T03:28:29.601Z,59.59
2023-05-01T03:30:58.271Z,59.23
2023-05-01T03:33:28.056Z,58.88
2023-05-01T03:36:04.757Z,58.74
2023-05-01T03:38:34.456Z,58.46
2023-05-01T03:41:12.383Z,58.36
2023-05-01T03:43:44.031Z,57.98
2023-05-01T03:46:27.673Z,57.72
2023-05-01T03:48:57.164Z,57.54
2023-05-01T03:51:27.397Z,57.27
2023-05-01T03:53:59.164Z,57.02
2023-05-01T03:56:35.915Z,57.07
2023-05-01T03:59:05.272Z,56.98
2023-05-01T04:01:35.195Z,57.08
2023-05-01T04:04:04.559Z,56.65
2023-05-01T04:06:34.182Z,56.48
2023-05-01T04:09:03.880Z,56.48
2023-05-01T04:11:32.808Z,56.38
2023-05-01T04:14:01.953Z,56.38
2023-05-01T04:16:31.390Z,56.56
2023-05-01T04:19:00.165Z,56.49
2023-05-01T04:21:29.329Z,56.76
2023-05-01T04:23:58.822Z,56.88
2023-05-01T04:26:27.718Z,56.90
2023-05-01T04:28:56.412Z,57.10
2023-05-01T04:31:26.642Z,57.15
2023-05-01T04:33:57.188Z,57.05
2023-05-01T04:36:26.045Z,57.28
2023-05-01T04:38:54.935Z,57.27
2023-05-01T04:41:24.444Z,57.31
2023-05-01T04:43:53.219Z,57.19
2023-05-01T04:46:22.234Z,57.05
2023-05-01T04:48:51.727Z,56.97
2023-05-01T04:51:21.027Z,57.10
2023-05-01T04:53:50.113Z,57.21
2023-05-01T04:56:23.320Z,57.10
2023-05-01T04:58:54.712Z,56.97
2023-05-01T05:01:25.835Z,56.91
2023-05-01T05:03:55.343Z,56.83
2023-05-01T05:06:24.495Z,56.60
2023-05-01T05:08:54.642Z,56.48
2023-05-01T05:11:23.120Z,56.07
2023-05-01T05:13:53.157Z,56.01
2023-05-01T05:16:21.926Z,55.92
2023-05-01T05:18:52.849Z,55.75
2023-05-01T05:21:21.642Z,55.43
2023-05-01T05:23:53.836Z,55.38
2023-05-01T05:26:23.656Z,55.44
2023-05-01T05:28:52.528Z,55.62
2023-05-01T05:31:21.761Z,55.32
2023-05-01T05:33:50.713Z,54.92
2023-05-01T05:36:20.360Z,54.90
2023-05-01T05:38:49.613Z,54.75
2023-05-01T05:41:20.769Z,54.65
2023-05-01T05:43:50.263Z,54.27
2023-05-01T05:46:18.849Z,54.28
2023-05-01T05:48:48.244Z,54.55
2023-05-01T05:51:17.339Z,53.84
2023-05-01T05:53:45.918Z,52.78
2023-05-01T05:56:14.806Z,52.78
2023-05-01T05:58:44.427Z,51.96
2023-05-01T06:01:13.003Z,51.44
2023-05-01T06:03:41.714Z,51.35
2023-05-01T06:06:10.644Z,50.04
2023-05-01T06:08:41.016Z,50.12
2023-05-01T06:11:12.452Z,49.58
2023-05-01T06:13:41.252Z,49.33
2023-05-01T06:16:10.464Z,49.09
2023-05-01T06:18:38.923Z,49.25
2023-05-01T06:21:08.008Z,48.77
2023-05-01T06:23:36.929Z,48.69
2023-05-01T06:26:23.659Z,48.30
2023-05-01T06:28:52.555Z,48.18
2023-05-01T06:31:21.897Z,48.25
2023-05-01T06:33:56.636Z,47.61
2023-05-01T06:36:31.771Z,46.51
2023-05-01T06:39:00.454Z,46.32
2023-05-01T06:41:29.239Z,45.90
2023-05-01T06:43:58.890Z,45.41
2023-05-01T06:46:28.395Z,45.96
2023-05-01T06:48:56.831Z,45.07
2023-05-01T06:51:25.618Z,44.00
2023-05-01T06:53:54.120Z,43.89
2023-05-01T06:56:23.426Z,44.42
2023-05-01T06:58:53.038Z,43.94
2023-05-01T07:01:21.890Z,43.67
2023-05-01T07:03:50.634Z,43.45
2023-05-01T07:06:23.768Z,42.69
2023-05-01T07:08:54.829Z,42.05
2023-05-01T07:11:23.400Z,41.16
2023-05-01T07:13:52.224Z,40.47
2023-05-01T07:16:21.828Z,39.41
2023-05-01T07:18:50.917Z,39.14
2023-05-01T07:21:19.505Z,39.48
2023-05-01T07:23:48.168Z,39.82
2023-05-01T07:26:17.060Z,39.18
2023-05-01T07:28:45.751Z,39.21
2023-05-01T07:31:15.680Z,38.57
2023-05-01T07:33:45.300Z,39.30
2023-05-01T07:36:16.960Z,38.12
2023-05-01T07:42:23.724Z,37.60
2023-05-01T07:44:52.324Z,36.65
2023-05-01T07:47:21.357Z,36.24
2023-05-01T07:49:50.184Z,37.24
2023-05-01T07:52:18.556Z,37.41
2023-05-01T07:54:51.585Z,37.40
2023-05-01T07:57:20.235Z,37.38
2023-05-01T07:59:49.025Z,37.54
2023-05-01T08:02:18.076Z,37.06
2023-05-01T08:04:48.525Z,36.77
2023-05-01T08:07:18.050Z,36.81
2023-05-01T08:09:46.938Z,36.53
2023-05-01T08:12:15.468Z,35.56
2023-05-01T08:14:44.276Z,35.78
2023-05-01T08:17:12.927Z,36.48
2023-05-01T08:19:41.485Z,36.50
2023-05-01T08:22:10.681Z,35.60
2023-05-01T08:24:39.672Z,35.96
2023-05-01T08:27:09.172Z,35.45
2023-05-01T08:29:37.652Z,35.63
2023-05-01T08:32:06.244Z,35.77
2023-05-01T08:34:35.096Z,35.63
2023-05-01T08:37:03.820Z,36.39
2023-05-01T08:39:32.921Z,36.06
2023-05-01T08:42:01.873Z,35.21
2023-05-01T08:44:31.963Z,34.94
2023-05-01T08:47:17.528Z,34.86
2023-05-01T08:49:48.242Z,35.23
2023-05-01T08:52:17.231Z,35.04
2023-05-01T08:54:47.489Z,35.20
2023-05-01T08:57:17.437Z,34.96
2023-05-01T08:59:47.084Z,33.53
2023-05-01T09:02:16.468Z,32.45
2023-05-01T09:04:45.975Z,32.89
2023-05-01T09:07:15.353Z,32.39
2023-05-01T09:09:44.385Z,32.55
2023-05-01T09:12:27.055Z,32.99
2023-05-01T09:14:57.230Z,32.14
2023-05-01T09:17:25.920Z,31.56
2023-05-01T09:19:55.096Z,32.21
2023-05-01T09:22:24.446Z,32.70
2023-05-01T09:24:52.916Z,33.18
2023-05-01T09:27:21.353Z,33.39
2023-05-01T09:29:49.814Z,33.52
2023-05-01T09:32:28.356Z,33.54
2023-05-01T09:35:10.906Z,33.60
2023-05-01T09:37:39.891Z,33.64
2023-05-01T09:40:14.535Z,33.23
2023-05-01T09:42:53.447Z,32.14
2023-05-01T09:45:23.767Z,32.16
2023-05-01T09:47:52.067Z,32.51
2023-05-01T09:50:35.266Z,32.18
2023-05-01T09:53:06.811Z,32.09
2023-05-01T09:55:35.489Z,32.64
2023-05-01T09:58:03.958Z,32.76
2023-05-01T10:00:34.382Z,32.57
2023-05-01T10:03:15.362Z,32.68
2023-05-01T10:05:44.881Z,32.61
2023-05-01T10:08:16.132Z,33.13
2023-05-01T10:10:44.932Z,33.25
2023-05-01T10:13:19.269Z,33.60
2023-05-01T10:15:47.674Z,34.01
2023-05-01T10:18:18.547Z,33.95
2023-05-01T10:20:47.365Z,33.49
2023-05-01T10:23:15.791Z,33.26
2023-05-01T10:25:45.287Z,32.95
2023-05-01T10:28:14.534Z,32.97
2023-05-01T10:30:46.054Z,32.40
2023-05-01T10:33:15.090Z,32.21
2023-05-01T10:35:50.397Z,32.38
2023-05-01T10:38:25.490Z,32.78
2023-05-01T10:40:53.866Z,33.31
2023-05-01T10:43:30.879Z,32.85
2023-05-01T10:46:08.658Z,32.30
2023-05-01T10:48:44.117Z,31.95
2023-05-01T10:51:20.433Z,32.45
2023-05-01T10:54:10.259Z,32.55
2023-05-01T10:56:38.599Z,32.48
2023-05-01T10:59:07.658Z,32.29
2023-05-01T11:01:40.291Z,31.91
2023-05-01T11:04:23.085Z,32.05
2023-05-01T11:07:08.014Z,32.55
2023-05-01T11:09:38.345Z,31.33
2023-05-01T11:12:08.483Z,31.31
2023-05-01T11:15:02.602Z,31.03
2023-05-01T11:17:41.039Z,30.87
2023-05-01T11:20:33.567Z,30.99
2023-05-01T11:23:02.265Z,31.00
2023-05-01T11:25:32.084Z,31.33
2023-05-01T11:28:02.462Z,31.39
2023-05-01T11:30:41.011Z,30.73
2023-05-01T11:33:10.997Z,29.57
2023-05-01T11:35:40.265Z,29.67
2023-05-01T11:38:18.998Z,28.94
2023-05-01T11:40:56.174Z,29.02
2023-05-01T11:43:24.722Z,28.90
2023-05-01T11:45:55.360Z,28.90
2023-05-01T11:48:24.125Z,29.09
2023-05-01T11:50:52.494Z,28.98
2023-05-01T11:53:21.215Z,29.01
2023-05-01T11:55:49.914Z,28.85
2023-05-01T11:58:18.409Z,28.51
2023-05-01T12:00:51.383Z,27.96
2023-05-01T12:03:20.867Z,26.62
2023-05-01T12:05:49.766Z,26.81
2023-05-01T12:08:21.006Z,27.06
2023-05-01T12:10:57.570Z,26.76
2023-05-01T12:13:27.257Z,27.30
2023-05-01T12:15:57.061Z,27.41
2023-05-01T12:18:25.935Z,28.05
2023-05-01T12:20:55.705Z,28.21
2023-05-01T12:23:40.010Z,28.60
2023-05-01T12:26:18.083Z,28.74
2023-05-01T12:29:03.372Z,28.87
2023-05-01T12:31:32.382Z,28.59
2023-05-01T12:34:08.301Z,27.87
2023-05-01T12:36:37.723Z,27.93
2023-05-01T12:39:14.407Z,28.07
2023-05-01T12:41:49.775Z,28.07
2023-05-01T12:44:25.147Z,27.65
2023-05-01T12:46:59.304Z,27.66
2023-05-01T12:49:29.474Z,27.13
2023-05-01T12:52:00.159Z,27.33
2023-05-01T12:54:32.637Z,27.19
2023-05-01T12:57:11.617Z,26.98
2023-05-01T12:59:41.841Z,26.18
2023-05-01T13:02:17.591Z,25.76
2023-05-01T13:04:49.567Z,26.18
2023-05-01T13:07:19.561Z,26.87
2023-05-01T13:09:57.922Z,26.81
2023-05-01T13:12:28.068Z,27.01
2023-05-01T13:14:57.571Z,27.33
2023-05-01T13:17:31.343Z,27.31
2023-05-01T13:20:02.619Z,27.06
2023-05-01T13:22:36.982Z,27.17
2023-05-01T13:25:15.426Z,26.64
2023-05-01T13:27:53.839Z,25.92
2023-05-01T13:30:33.148Z,25.68
2023-05-01T13:33:02.428Z,26.05
2023-05-01T13:35:31.703Z,26.43
2023-05-01T13:38:04.137Z,25.46
2023-05-01T13:40:35.055Z,25.47
2023-05-01T13:43:04.047Z,25.59
2023-05-01T13:45:33.101Z,25.75
2023-05-01T13:48:04.893Z,25.47
2023-05-01T13:50:34.724Z,25.35
2023-05-01T13:53:03.149Z,24.92
2023-05-01T13:55:32.917Z,25.00
2023-05-01T13:58:03.267Z,24.55
2023-05-01T14:00:31.676Z,24.64
2023-05-01T14:03:00.451Z,24.60
2023-05-01T14:05:29.770Z,24.46
2023-05-01T14:07:59.124Z,24.69
2023-05-01T14:10:29.693Z,23.85
2023-05-01T14:12:59.156Z,23.92
2023-05-01T14:15:28.982Z,24.22
2023-05-01T14:17:59.125Z,24.46
2023-05-01T14:20:27.449Z,24.68
2023-05-01T14:22:55.910Z,24.79
2023-05-01T14:25:34.959Z,24.75
2023-05-01T14:28:09.789Z,25.19
2023-05-01T14:30:39.926Z,25.16
2023-05-01T14:33:13.230Z,24.80
2023-05-01T14:35:50.395Z,24.92
2023-05-01T14:38:20.905Z,24.80
2023-05-01T14:40:49.495Z,25.08
2023-05-01T14:43:20.106Z,24.66
2023-05-01T14:46:40.103Z,24.87
2023-05-01T14:49:08.612Z,24.92
2023-05-01T14:51:57.100Z,24.96
2023-05-01T14:55:08.453Z,24.81
2023-05-01T14:57:39.413Z,25.61
2023-05-01T15:00:28.242Z,25.58
2023-05-01T15:03:09.469Z,25.98
2023-05-01T15:05:40.430Z,26.19
2023-05-01T15:08:09.711Z,26.15
2023-05-01T15:10:38.871Z,26.19
2023-05-01T15:13:07.326Z,26.46
2023-05-01T15:15:35.942Z,26.24
2023-05-01T15:18:04.555Z,26.30
2023-05-01T15:20:33.368Z,26.42
2023-05-01T15:23:01.685Z,26.60
2023-05-01T15:25:30.159Z,26.78
2023-05-01T15:27:58.679Z,26.94
2023-05-01T15:30:27.301Z,27.03
2023-05-01T15:32:56.005Z,27.01
2023-05-01T15:35:24.678Z,27.04
2023-05-01T15:37:54.217Z,27.12
2023-05-01T15:40:23.135Z,27.29
2023-05-01T15:42:52.178Z,27.40
2023-05-01T15:45:23.054Z,27.21
2023-05-01T15:47:51.631Z,27.25
2023-05-01T15:50:21.422Z,27.53
2023-05-01T15:52:52.746Z,27.93
2023-05-01T15:55:22.293Z,27.78
2023-05-01T15:57:50.935Z,27.45
2023-05-01T16:00:21.968Z,27.09
2023-05-01T16:02:54.839Z,27.49
2023-05-01T16:05:25.377Z,27.52
2023-05-01T16:07:56.010Z,27.62
2023-05-01T16:10:25.769Z,27.56
2023-05-01T16:12:54.322Z,27.74
2023-05-01T16:15:23.136Z,27.74
2023-05-01T16:17:52.413Z,27.39
2023-05-01T16:20:21.315Z,27.87
2023-05-01T16:22:50.087Z,27.72
2023-05-01T16:25:18.768Z,27.95
2023-05-01T16:27:47.735Z,27.85
2023-05-01T16:30:16.171Z,27.29
2023-05-01T16:32:45.164Z,27.42
2023-05-01T16:35:19.086Z,27.79
2023-05-01T16:37:47.749Z,28.06
2023-05-01T16:40:18.213Z,28.10
2023-05-01T16:42:53.692Z,28.26
2023-05-01T16:45:22.498Z,28.05
2023-05-01T16:47:51.778Z,28.43
2023-05-01T16:50:22.561Z,28.62
2023-05-01T16:53:42.537Z,28.75
2023-05-01T16:56:11.700Z,28.95
2023-05-01T16:58:40.252Z,29.09
2023-05-01T17:01:08.745Z,29.11
2023-05-01T17:03:38.968Z,29.18
2023-05-01T17:06:08.570Z,29.25
2023-05-01T17:08:36.861Z,29.54
2023-05-01T17:11:06.931Z,29.88
2023-05-01T17:13:35.718Z,29.94
2023-05-01T17:16:04.533Z,30.18
2023-05-01T17:18:33.152Z,30.11
2023-05-01T17:21:02.182Z,30.31
2023-05-01T17:23:57.289Z,30.42
2023-05-01T17:26:50.686Z,30.61
2023-05-01T17:29:19.623Z,30.93
2023-05-01T17:35:25.288Z,31.88
2023-05-01T17:37:53.705Z,32.95
2023-05-01T17:40:22.061Z,32.37
2023-05-01T17:42:50.981Z,33.43
2023-05-01T17:45:20.891Z,33.80
2023-05-01T17:47:49.804Z,34.02
2023-05-01T17:50:19.488Z,34.56
2023-05-01T17:52:48.036Z,33.97
2023-05-01T17:55:18.303Z,35.23
2023-05-01T17:57:47.914Z,34.92
2023-05-01T18:00:17.042Z,36.82
2023-05-01T18:02:46.921Z,37.48
2023-05-01T18:05:15.838Z,36.92
2023-05-01T18:07:44.642Z,37.92
2023-05-01T18:10:13.160Z,39.93
2023-05-01T18:12:41.858Z,40.62
2023-05-01T18:15:11.206Z,39.14
2023-05-01T18:17:39.762Z,40.56
2023-05-01T18:20:09.358Z,39.27
2023-05-01T18:22:37.873Z,39.02
2023-05-01T18:25:07.237Z,38.46
2023-05-01T18:27:38.222Z,38.94
2023-05-01T18:30:09.033Z,43.33
2023-05-01T18:32:47.485Z,41.55
2023-05-01T18:35:18.733Z,42.49
2023-05-01T18:37:47.299Z,40.60
2023-05-01T18:40:15.821Z,42.03
2023-05-01T18:42:44.429Z,43.72
2023-05-01T18:45:14.305Z,43.42
2023-05-01T18:47:43.063Z,43.44
2023-05-01T18:50:11.812Z,42.79
2023-05-01T18:56:17.284Z,43.47
2023-05-01T18:58:45.937Z,46.74
2023-05-01T19:01:14.269Z,45.19
2023-05-01T19:03:42.751Z,45.50
2023-05-01T19:06:11.282Z,44.32
2023-05-01T19:08:40.297Z,44.27
2023-05-01T19:11:08.732Z,46.32
2023-05-01T19:13:37.308Z,46.70
2023-05-01T19:16:06.016Z,46.12
2023-05-01T19:18:37.580Z,44.46
2023-05-01T19:21:06.177Z,45.55
2023-05-01T19:23:35.218Z,44.77
2023-05-01T19:26:08.472Z,45.44
2023-05-01T19:28:47.700Z,45.21
2023-05-01T19:31:20.670Z,48.37
2023-05-01T19:33:50.537Z,49.10
2023-05-01T19:36:21.813Z,48.70
2023-05-01T19:38:53.995Z,48.44
2023-05-01T19:41:27.976Z,47.54
2023-05-01T19:43:58.223Z,49.45
2023-05-01T19:46:27.059Z,48.27
2023-05-01T19:48:55.630Z,48.28
2023-05-01T19:51:24.152Z,49.37
2023-05-01T19:53:52.533Z,48.75
2023-05-01T19:56:21.036Z,50.03
2023-05-01T19:58:49.735Z,48.36
2023-05-01T20:01:17.944Z,47.84
2023-05-01T20:03:46.507Z,50.82
2023-05-01T20:06:15.658Z,49.41
2023-05-01T20:08:44.552Z,52.66
2023-05-01T20:11:13.026Z,52.89
2023-05-01T20:13:42.053Z,52.47
2023-05-01T20:16:10.728Z,50.20
2023-05-01T20:18:39.259Z,50.65
2023-05-01T20:21:08.165Z,53.70
2023-05-01T20:23:36.608Z,52.33
2023-05-01T20:26:05.245Z,51.89
2023-05-01T20:28:33.812Z,50.25
2023-05-01T20:31:02.471Z,50.26
2023-05-01T20:33:30.904Z,52.16
2023-05-01T20:35:59.562Z,51.02
2023-05-01T20:38:27.959Z,50.81
2023-05-01T20:40:56.540Z,51.33
2023-05-01T20:43:25.123Z,53.55
2023-05-01T20:45:54.030Z,53.38
2023-05-01T20:48:25.320Z,53.53
2023-05-01T20:50:53.881Z,53.54
2023-05-01T20:53:22.224Z,52.55
2023-05-01T20:55:50.688Z,55.91
2023-05-01T20:58:19.092Z,57.65
2023-05-01T21:00:47.672Z,57.23
2023-05-01T21:03:16.587Z,55.17
2023-05-01T21:05:45.346Z,57.04
2023-05-01T21:08:13.931Z,55.63
2023-05-01T21:10:42.379Z,57.48
2023-05-01T21:13:10.903Z,57.29
2023-05-01T21:15:41.911Z,57.24
2023-05-01T21:18:14.554Z,59.77
2023-05-01T21:20:45.776Z,59.10
2023-05-01T21:23:17.025Z,58.88
2023-05-01T21:25:45.447Z,57.47
2023-05-01T21:28:14.664Z,55.88
2023-05-01T21:30:43.195Z,60.74
2023-05-01T21:33:17.316Z,61.27
2023-05-01T21:35:46.959Z,59.65
2023-05-01T21:38:16.693Z,61.30
2023-05-01T21:40:46.414Z,59.55
2023-05-01T21:43:15.017Z,57.44
2023-05-01T21:45:44.561Z,57.77
2023-05-01T21:48:18.596Z,59.02
2023-05-01T21:50:50.449Z,56.86
2023-05-01T21:53:18.791Z,58.41
2023-05-01T21:55:47.246Z,59.62
2023-05-01T21:58:15.702Z,59.59
2023-05-01T22:00:46.144Z,62.16
2023-05-01T22:03:18.271Z,62.24
2023-05-01T22:05:47.112Z,61.28
2023-05-01T22:08:15.660Z,60.03
2023-05-01T22:10:45.723Z,61.85
2023-05-01T22:13:14.217Z,62.13
2023-05-01T22:15:42.797Z,61.36
2023-05-01T22:18:11.307Z,60.25
2023-05-01T22:20:39.906Z,60.46
2023-05-01T22:23:08.394Z,59.48
2023-05-01T22:25:37.186Z,58.68
2023-05-01T22:28:06.323Z,61.31
2023-05-01T22:30:35.331Z,61.39
2023-05-01T22:33:04.071Z,61.82
2023-05-01T22:35:32.535Z,61.26
2023-05-01T22:38:01.070Z,60.47
2023-05-01T22:40:29.549Z,60.72
2023-05-01T22:42:58.432Z,62.49
2023-05-01T22:45:27.514Z,62.92
2023-05-01T22:47:56.524Z,64.80
2023-05-01T22:50:25.154Z,62.08
2023-05-01T22:52:53.746Z,61.55
2023-05-01T22:55:22.536Z,61.68
2023-05-01T22:57:51.319Z,62.53
2023-05-01T23:00:19.866Z,63.05
2023-05-01T23:02:48.289Z,63.48
2023-05-01T23:05:17.626Z,61.70
2023-05-01T23:07:46.274Z,64.07
2023-05-01T23:10:15.702Z,64.13
2023-05-01T23:12:45.337Z,63.88
2023-05-01T23:15:17.182Z,63.72
2023-05-01T23:17:46.420Z,62.52
2023-05-01T23:20:22.954Z,63.73
2023-05-01T23:22:51.826Z,64.57
2023-05-01T23:25:26.280Z,64.75
2023-05-01T23:27:56.936Z,64.22
2023-05-01T23:30:25.502Z,64.10
2023-05-01T23:32:58.993Z,66.36
2023-05-01T23:35:27.499Z,66.07
2023-05-01T23:37:56.283Z,64.86
2023-05-01T23:40:25.174Z,65.00
2023-05-01T23:42:55.344Z,65.08
2023-05-01T23:45:23.912Z,64.80
2023-05-01T23:47:52.489Z,64.55
2023-05-01T23:50:21.715Z,65.17
2023-05-01T23:52:50.532Z,64.78
2023-05-01T23:55:20.448Z,65.82
2023-05-01T23:57:48.766Z,66.22
